Santa Paula, California
Current Conditions -  °F | °C
As of 10:55 PM on Wednesday 26 Nov 2014 (Local Time) from KCMA Reporting Station
Clear Clear  
Wind Chill: 53°   Ceiling: Unl
Heat Index: 53°   Visibility: 10mi
Dew Point: 38°   Wind: 6mph
Humidity: 57%   Direction: 50°NE
Pressure: 30.13"   Gusts: NA
Location:  34.35°N, 119.05°W
Report Text: KCMA 270655Z 05005KT 10SM CLR 12/03 A3013 RMK AO2 SLP212 T01170033
Loading
Personal Weather Stations






























Interactive Weather Map New forecast layout! Learn more

10-Day Weather Forecast

Advertisements
Track Severe Weather on mobile